sensor_id;sensor_type;location;lat;lon;timestamp;P1;durP1;ratioP1;P2;durP2;ratioP2
33844;SDS011;20145;43.118;25.694;2024-01-25T00:01:47;41.35;;;28.83;;
33844;SDS011;20145;43.118;25.694;2024-01-25T00:04:12;42.30;;;28.52;;
33844;SDS011;20145;43.118;25.694;2024-01-25T00:06:38;38.83;;;28.60;;
33844;SDS011;20145;43.118;25.694;2024-01-25T00:09:03;43.55;;;28.92;;
33844;SDS011;20145;43.118;25.694;2024-01-25T00:11:29;33.83;;;25.85;;
33844;SDS011;20145;43.118;25.694;2024-01-25T00:13:57;34.10;;;25.27;;
33844;SDS011;20145;43.118;25.694;2024-01-25T00:16:23;36.55;;;25.67;;
33844;SDS011;20145;43.118;25.694;2024-01-25T00:18:48;41.22;;;29.13;;
33844;SDS011;20145;43.118;25.694;2024-01-25T00:21:14;31.88;;;23.65;;
33844;SDS011;20145;43.118;25.694;2024-01-25T00:23:40;23.85;;;18.67;;
33844;SDS011;20145;43.118;25.694;2024-01-25T00:26:05;26.80;;;18.58;;
33844;SDS011;20145;43.118;25.694;2024-01-25T00:28:31;19.95;;;14.73;;
33844;SDS011;20145;43.118;25.694;2024-01-25T00:30:58;30.27;;;22.17;;
33844;SDS011;20145;43.118;25.694;2024-01-25T00:33:24;31.65;;;22.23;;
33844;SDS011;20145;43.118;25.694;2024-01-25T00:35:50;37.55;;;26.30;;
33844;SDS011;20145;43.118;25.694;2024-01-25T00:38:16;36.30;;;25.17;;
33844;SDS011;20145;43.118;25.694;2024-01-25T00:40:42;41.45;;;26.05;;
33844;SDS011;20145;43.118;25.694;2024-01-25T00:43:08;36.45;;;24.45;;
33844;SDS011;20145;43.118;25.694;2024-01-25T00:45:34;38.70;;;27.40;;
33844;SDS011;20145;43.118;25.694;2024-01-25T00:48:00;34.67;;;24.90;;
33844;SDS011;20145;43.118;25.694;2024-01-25T00:50:26;34.97;;;24.98;;
33844;SDS011;20145;43.118;25.694;2024-01-25T00:52:52;34.78;;;22.98;;
33844;SDS011;20145;43.118;25.694;2024-01-25T00:55:18;35.67;;;24.40;;
33844;SDS011;20145;43.118;25.694;2024-01-25T00:57:44;35.42;;;23.05;;
33844;SDS011;20145;43.118;25.694;2024-01-25T01:00:10;35.17;;;23.75;;
33844;SDS011;20145;43.118;25.694;2024-01-25T01:02:39;35.25;;;23.55;;
33844;SDS011;20145;43.118;25.694;2024-01-25T01:05:08;35.33;;;22.95;;
33844;SDS011;20145;43.118;25.694;2024-01-25T01:07:34;31.52;;;22.38;;
33844;SDS011;20145;43.118;25.694;2024-01-25T01:10:00;27.48;;;20.17;;
33844;SDS011;20145;43.118;25.694;2024-01-25T01:12:25;29.20;;;20.15;;
33844;SDS011;20145;43.118;25.694;2024-01-25T01:14:51;31.08;;;22.92;;
33844;SDS011;20145;43.118;25.694;2024-01-25T01:17:17;28.27;;;20.60;;
33844;SDS011;20145;43.118;25.694;2024-01-25T01:19:43;28.60;;;20.73;;
33844;SDS011;20145;43.118;25.694;2024-01-25T01:22:10;30.13;;;20.60;;
33844;SDS011;20145;43.118;25.694;2024-01-25T01:24:35;32.63;;;20.90;;
33844;SDS011;20145;43.118;25.694;2024-01-25T01:27:01;32.97;;;20.50;;
33844;SDS011;20145;43.118;25.694;2024-01-25T01:29:27;30.35;;;20.25;;
33844;SDS011;20145;43.118;25.694;2024-01-25T01:31:53;28.42;;;17.90;;
33844;SDS011;20145;43.118;25.694;2024-01-25T01:34:18;22.65;;;16.00;;
33844;SDS011;20145;43.118;25.694;2024-01-25T01:36:44;27.38;;;19.98;;
33844;SDS011;20145;43.118;25.694;2024-01-25T01:39:10;30.35;;;20.17;;
33844;SDS011;20145;43.118;25.694;2024-01-25T01:41:36;28.73;;;20.35;;
33844;SDS011;20145;43.118;25.694;2024-01-25T01:44:02;31.92;;;23.48;;
33844;SDS011;20145;43.118;25.694;2024-01-25T01:46:31;38.35;;;26.13;;
33844;SDS011;20145;43.118;25.694;2024-01-25T01:49:12;38.58;;;27.25;;
33844;SDS011;20145;43.118;25.694;2024-01-25T01:51:40;37.13;;;27.48;;
33844;SDS011;20145;43.118;25.694;2024-01-25T01:54:08;49.33;;;34.80;;
33844;SDS011;20145;43.118;25.694;2024-01-25T01:56:35;44.83;;;35.38;;
33844;SDS011;20145;43.118;25.694;2024-01-25T01:59:02;32.53;;;25.45;;
33844;SDS011;20145;43.118;25.694;2024-01-25T02:01:29;27.63;;;20.50;;
33844;SDS011;20145;43.118;25.694;2024-01-25T02:03:56;33.45;;;19.55;;
33844;SDS011;20145;43.118;25.694;2024-01-25T02:06:25;24.85;;;18.73;;
33844;SDS011;20145;43.118;25.694;2024-01-25T02:08:51;28.92;;;20.23;;
33844;SDS011;20145;43.118;25.694;2024-01-25T02:11:20;30.40;;;20.20;;
33844;SDS011;20145;43.118;25.694;2024-01-25T02:13:46;27.45;;;19.33;;
33844;SDS011;20145;43.118;25.694;2024-01-25T02:16:12;27.10;;;20.00;;
33844;SDS011;20145;43.118;25.694;2024-01-25T02:18:40;27.73;;;20.33;;
33844;SDS011;20145;43.118;25.694;2024-01-25T02:21:06;28.73;;;19.55;;
33844;SDS011;20145;43.118;25.694;2024-01-25T02:23:32;28.95;;;20.60;;
33844;SDS011;20145;43.118;25.694;2024-01-25T02:25:58;24.30;;;17.77;;
33844;SDS011;20145;43.118;25.694;2024-01-25T02:28:24;24.15;;;17.80;;
33844;SDS011;20145;43.118;25.694;2024-01-25T02:30:50;26.42;;;17.58;;
33844;SDS011;20145;43.118;25.694;2024-01-25T02:33:15;24.17;;;16.88;;
33844;SDS011;20145;43.118;25.694;2024-01-25T02:35:41;22.58;;;16.02;;
33844;SDS011;20145;43.118;25.694;2024-01-25T02:38:07;23.38;;;16.95;;
33844;SDS011;20145;43.118;25.694;2024-01-25T02:40:32;23.52;;;16.58;;
33844;SDS011;20145;43.118;25.694;2024-01-25T02:42:58;23.58;;;15.68;;
33844;SDS011;20145;43.118;25.694;2024-01-25T02:45:24;18.13;;;13.45;;
33844;SDS011;20145;43.118;25.694;2024-01-25T02:47:49;22.13;;;15.65;;
33844;SDS011;20145;43.118;25.694;2024-01-25T02:50:15;25.55;;;17.02;;
33844;SDS011;20145;43.118;25.694;2024-01-25T02:52:41;28.88;;;22.00;;
33844;SDS011;20145;43.118;25.694;2024-01-25T02:55:07;21.02;;;16.85;;
33844;SDS011;20145;43.118;25.694;2024-01-25T02:57:32;23.98;;;16.88;;
33844;SDS011;20145;43.118;25.694;2024-01-25T03:03:20;17.85;;;13.27;;
33844;SDS011;20145;43.118;25.694;2024-01-25T03:05:45;23.88;;;17.73;;
33844;SDS011;20145;43.118;25.694;2024-01-25T03:08:11;28.15;;;20.73;;
33844;SDS011;20145;43.118;25.694;2024-01-25T03:10:36;26.08;;;19.20;;
33844;SDS011;20145;43.118;25.694;2024-01-25T03:13:02;22.60;;;17.52;;
33844;SDS011;20145;43.118;25.694;2024-01-25T03:15:28;26.40;;;18.85;;
33844;SDS011;20145;43.118;25.694;2024-01-25T03:17:53;25.63;;;18.77;;
33844;SDS011;20145;43.118;25.694;2024-01-25T03:20:19;22.77;;;17.67;;
33844;SDS011;20145;43.118;25.694;2024-01-25T03:22:45;25.10;;;17.63;;
33844;SDS011;20145;43.118;25.694;2024-01-25T03:25:10;21.80;;;16.52;;
33844;SDS011;20145;43.118;25.694;2024-01-25T03:27:36;20.45;;;14.25;;
33844;SDS011;20145;43.118;25.694;2024-01-25T03:30:02;20.98;;;15.07;;
33844;SDS011;20145;43.118;25.694;2024-01-25T03:32:30;19.25;;;13.40;;
33844;SDS011;20145;43.118;25.694;2024-01-25T03:34:55;14.90;;;11.18;;
33844;SDS011;20145;43.118;25.694;2024-01-25T03:37:21;14.23;;;10.23;;
33844;SDS011;20145;43.118;25.694;2024-01-25T03:39:47;12.07;;;10.35;;
33844;SDS011;20145;43.118;25.694;2024-01-25T03:42:13;17.27;;;14.27;;
33844;SDS011;20145;43.118;25.694;2024-01-25T03:44:39;24.25;;;16.08;;
33844;SDS011;20145;43.118;25.694;2024-01-25T03:47:07;8.50;;;6.90;;
33844;SDS011;20145;43.118;25.694;2024-01-25T03:49:33;10.10;;;6.38;;
33844;SDS011;20145;43.118;25.694;2024-01-25T03:51:58;10.13;;;7.22;;
33844;SDS011;20145;43.118;25.694;2024-01-25T03:54:24;11.35;;;7.10;;
33844;SDS011;20145;43.118;25.694;2024-01-25T03:56:50;6.45;;;3.63;;
33844;SDS011;20145;43.118;25.694;2024-01-25T03:59:15;6.03;;;3.30;;
33844;SDS011;20145;43.118;25.694;2024-01-25T04:01:42;5.28;;;4.10;;
33844;SDS011;20145;43.118;25.694;2024-01-25T04:04:12;10.83;;;6.80;;
33844;SDS011;20145;43.118;25.694;2024-01-25T04:06:40;5.45;;;4.03;;
33844;SDS011;20145;43.118;25.694;2024-01-25T04:09:08;5.90;;;3.80;;
33844;SDS011;20145;43.118;25.694;2024-01-25T04:11:34;7.30;;;4.32;;
33844;SDS011;20145;43.118;25.694;2024-01-25T04:14:01;5.72;;;4.78;;
33844;SDS011;20145;43.118;25.694;2024-01-25T04:16:26;4.45;;;4.05;;
33844;SDS011;20145;43.118;25.694;2024-01-25T04:18:52;3.65;;;2.40;;
33844;SDS011;20145;43.118;25.694;2024-01-25T04:21:18;3.40;;;2.95;;
33844;SDS011;20145;43.118;25.694;2024-01-25T04:23:44;2.80;;;2.00;;
33844;SDS011;20145;43.118;25.694;2024-01-25T04:26:09;2.45;;;2.20;;
33844;SDS011;20145;43.118;25.694;2024-01-25T04:28:35;2.33;;;1.83;;
33844;SDS011;20145;43.118;25.694;2024-01-25T04:31:03;2.47;;;1.80;;
33844;SDS011;20145;43.118;25.694;2024-01-25T04:33:29;2.72;;;1.77;;
33844;SDS011;20145;43.118;25.694;2024-01-25T04:35:55;2.42;;;2.13;;
33844;SDS011;20145;43.118;25.694;2024-01-25T04:38:21;6.28;;;1.67;;
33844;SDS011;20145;43.118;25.694;2024-01-25T04:40:47;2.88;;;2.13;;
33844;SDS011;20145;43.118;25.694;2024-01-25T04:43:13;2.03;;;1.73;;
33844;SDS011;20145;43.118;25.694;2024-01-25T04:45:39;1.75;;;1.65;;
33844;SDS011;20145;43.118;25.694;2024-01-25T04:48:05;3.88;;;1.77;;
33844;SDS011;20145;43.118;25.694;2024-01-25T04:50:31;5.78;;;1.85;;
33844;SDS011;20145;43.118;25.694;2024-01-25T04:52:57;5.03;;;2.42;;
33844;SDS011;20145;43.118;25.694;2024-01-25T04:55:23;1.98;;;1.88;;
33844;SDS011;20145;43.118;25.694;2024-01-25T04:57:48;4.53;;;3.67;;
33844;SDS011;20145;43.118;25.694;2024-01-25T05:00:18;5.57;;;4.43;;
33844;SDS011;20145;43.118;25.694;2024-01-25T05:02:46;2.72;;;2.53;;
33844;SDS011;20145;43.118;25.694;2024-01-25T05:05:12;3.95;;;2.65;;
33844;SDS011;20145;43.118;25.694;2024-01-25T05:07:38;3.47;;;2.63;;
33844;SDS011;20145;43.118;25.694;2024-01-25T05:10:04;3.70;;;2.45;;
33844;SDS011;20145;43.118;25.694;2024-01-25T05:12:30;3.05;;;2.40;;
33844;SDS011;20145;43.118;25.694;2024-01-25T05:14:56;5.45;;;2.28;;
33844;SDS011;20145;43.118;25.694;2024-01-25T05:17:22;3.60;;;2.78;;
33844;SDS011;20145;43.118;25.694;2024-01-25T05:19:47;5.75;;;2.25;;
33844;SDS011;20145;43.118;25.694;2024-01-25T05:22:13;5.18;;;2.75;;
33844;SDS011;20145;43.118;25.694;2024-01-25T05:24:38;4.10;;;2.97;;
33844;SDS011;20145;43.118;25.694;2024-01-25T05:27:04;4.50;;;3.33;;
33844;SDS011;20145;43.118;25.694;2024-01-25T05:29:30;7.95;;;5.35;;
33844;SDS011;20145;43.118;25.694;2024-01-25T05:31:56;16.48;;;8.90;;
33844;SDS011;20145;43.118;25.694;2024-01-25T05:34:22;14.10;;;8.80;;
33844;SDS011;20145;43.118;25.694;2024-01-25T05:36:48;16.58;;;8.60;;
33844;SDS011;20145;43.118;25.694;2024-01-25T05:39:14;19.35;;;11.32;;
33844;SDS011;20145;43.118;25.694;2024-01-25T05:41:40;37.13;;;21.10;;
33844;SDS011;20145;43.118;25.694;2024-01-25T05:44:06;40.60;;;22.75;;
33844;SDS011;20145;43.118;25.694;2024-01-25T05:46:31;22.98;;;13.27;;
33844;SDS011;20145;43.118;25.694;2024-01-25T05:48:57;9.52;;;6.30;;
33844;SDS011;20145;43.118;25.694;2024-01-25T05:51:23;7.20;;;4.63;;
33844;SDS011;20145;43.118;25.694;2024-01-25T05:53:48;4.00;;;2.75;;
33844;SDS011;20145;43.118;25.694;2024-01-25T05:56:14;3.03;;;2.67;;
33844;SDS011;20145;43.118;25.694;2024-01-25T05:58:40;3.63;;;2.40;;
33844;SDS011;20145;43.118;25.694;2024-01-25T06:01:06;4.13;;;2.42;;
33844;SDS011;20145;43.118;25.694;2024-01-25T06:03:32;4.03;;;2.20;;
33844;SDS011;20145;43.118;25.694;2024-01-25T06:05:57;4.43;;;2.72;;
33844;SDS011;20145;43.118;25.694;2024-01-25T06:08:23;3.90;;;2.70;;
33844;SDS011;20145;43.118;25.694;2024-01-25T06:10:49;4.13;;;2.42;;
33844;SDS011;20145;43.118;25.694;2024-01-25T06:13:15;4.95;;;3.10;;
33844;SDS011;20145;43.118;25.694;2024-01-25T06:15:41;4.10;;;2.67;;
33844;SDS011;20145;43.118;25.694;2024-01-25T06:18:06;7.72;;;4.00;;
33844;SDS011;20145;43.118;25.694;2024-01-25T06:20:32;4.32;;;2.67;;
33844;SDS011;20145;43.118;25.694;2024-01-25T06:22:58;7.90;;;4.55;;
33844;SDS011;20145;43.118;25.694;2024-01-25T06:25:24;9.05;;;4.70;;
33844;SDS011;20145;43.118;25.694;2024-01-25T06:27:51;9.98;;;6.55;;
33844;SDS011;20145;43.118;25.694;2024-01-25T06:30:16;12.82;;;6.68;;
33844;SDS011;20145;43.118;25.694;2024-01-25T06:32:45;9.95;;;5.93;;
33844;SDS011;20145;43.118;25.694;2024-01-25T06:35:11;10.10;;;6.22;;
33844;SDS011;20145;43.118;25.694;2024-01-25T06:37:36;9.35;;;5.90;;
33844;SDS011;20145;43.118;25.694;2024-01-25T06:40:02;10.77;;;6.60;;
33844;SDS011;20145;43.118;25.694;2024-01-25T06:42:29;8.40;;;4.95;;
33844;SDS011;20145;43.118;25.694;2024-01-25T06:44:55;10.00;;;5.57;;
33844;SDS011;20145;43.118;25.694;2024-01-25T06:47:21;9.15;;;5.90;;
33844;SDS011;20145;43.118;25.694;2024-01-25T06:49:46;13.30;;;7.95;;
33844;SDS011;20145;43.118;25.694;2024-01-25T06:52:16;15.38;;;9.43;;
33844;SDS011;20145;43.118;25.694;2024-01-25T06:54:45;12.98;;;7.80;;
33844;SDS011;20145;43.118;25.694;2024-01-25T06:57:11;44.58;;;17.58;;
33844;SDS011;20145;43.118;25.694;2024-01-25T06:59:36;52.17;;;23.30;;
33844;SDS011;20145;43.118;25.694;2024-01-25T07:02:02;22.35;;;10.50;;
33844;SDS011;20145;43.118;25.694;2024-01-25T07:04:28;11.75;;;7.40;;
33844;SDS011;20145;43.118;25.694;2024-01-25T07:06:54;10.95;;;6.20;;
33844;SDS011;20145;43.118;25.694;2024-01-25T07:09:20;8.05;;;4.68;;
33844;SDS011;20145;43.118;25.694;2024-01-25T07:11:46;9.20;;;5.57;;
33844;SDS011;20145;43.118;25.694;2024-01-25T07:14:11;8.90;;;5.03;;
33844;SDS011;20145;43.118;25.694;2024-01-25T07:16:37;9.02;;;4.80;;
33844;SDS011;20145;43.118;25.694;2024-01-25T07:19:03;7.28;;;4.07;;
33844;SDS011;20145;43.118;25.694;2024-01-25T07:21:40;4.32;;;3.75;;
33844;SDS011;20145;43.118;25.694;2024-01-25T07:24:05;6.47;;;3.90;;
33844;SDS011;20145;43.118;25.694;2024-01-25T07:26:31;6.80;;;3.70;;
33844;SDS011;20145;43.118;25.694;2024-01-25T07:28:57;8.68;;;3.67;;
33844;SDS011;20145;43.118;25.694;2024-01-25T07:31:26;11.85;;;4.97;;
33844;SDS011;20145;43.118;25.694;2024-01-25T07:33:53;5.75;;;3.55;;
33844;SDS011;20145;43.118;25.694;2024-01-25T07:36:20;5.32;;;3.25;;
33844;SDS011;20145;43.118;25.694;2024-01-25T07:38:46;4.07;;;3.00;;
33844;SDS011;20145;43.118;25.694;2024-01-25T07:41:14;4.50;;;2.58;;
33844;SDS011;20145;43.118;25.694;2024-01-25T07:43:41;6.88;;;3.28;;
33844;SDS011;20145;43.118;25.694;2024-01-25T07:46:07;9.35;;;3.65;;
33844;SDS011;20145;43.118;25.694;2024-01-25T07:48:33;6.40;;;2.97;;
33844;SDS011;20145;43.118;25.694;2024-01-25T07:50:59;5.90;;;3.58;;
33844;SDS011;20145;43.118;25.694;2024-01-25T07:53:24;5.50;;;2.80;;
33844;SDS011;20145;43.118;25.694;2024-01-25T07:58:48;6.88;;;3.22;;
33844;SDS011;20145;43.118;25.694;2024-01-25T08:01:17;4.78;;;3.00;;
33844;SDS011;20145;43.118;25.694;2024-01-25T08:03:44;8.02;;;4.47;;
33844;SDS011;20145;43.118;25.694;2024-01-25T08:06:10;6.57;;;4.20;;
33844;SDS011;20145;43.118;25.694;2024-01-25T08:08:36;4.78;;;2.83;;
33844;SDS011;20145;43.118;25.694;2024-01-25T08:11:02;7.78;;;2.80;;
33844;SDS011;20145;43.118;25.694;2024-01-25T08:13:29;6.45;;;3.05;;
33844;SDS011;20145;43.118;25.694;2024-01-25T08:15:55;4.97;;;2.40;;
33844;SDS011;20145;43.118;25.694;2024-01-25T08:18:22;8.02;;;2.92;;
33844;SDS011;20145;43.118;25.694;2024-01-25T08:20:48;7.43;;;3.22;;
33844;SDS011;20145;43.118;25.694;2024-01-25T08:23:15;5.50;;;3.00;;
33844;SDS011;20145;43.118;25.694;2024-01-25T08:25:42;6.63;;;3.17;;
33844;SDS011;20145;43.118;25.694;2024-01-25T08:28:07;5.63;;;3.30;;
33844;SDS011;20145;43.118;25.694;2024-01-25T08:30:34;7.13;;;2.92;;
33844;SDS011;20145;43.118;25.694;2024-01-25T08:33:00;6.95;;;2.80;;
33844;SDS011;20145;43.118;25.694;2024-01-25T08:35:25;8.18;;;2.88;;
33844;SDS011;20145;43.118;25.694;2024-01-25T08:37:51;6.55;;;3.13;;
33844;SDS011;20145;43.118;25.694;2024-01-25T08:40:17;8.43;;;3.95;;
33844;SDS011;20145;43.118;25.694;2024-01-25T08:42:42;6.95;;;2.97;;
33844;SDS011;20145;43.118;25.694;2024-01-25T08:45:08;8.02;;;3.30;;
33844;SDS011;20145;43.118;25.694;2024-01-25T08:47:37;8.95;;;2.85;;
33844;SDS011;20145;43.118;25.694;2024-01-25T08:50:03;8.05;;;3.05;;
33844;SDS011;20145;43.118;25.694;2024-01-25T08:52:31;7.10;;;3.47;;
33844;SDS011;20145;43.118;25.694;2024-01-25T08:54:56;6.90;;;3.30;;
33844;SDS011;20145;43.118;25.694;2024-01-25T08:57:22;7.40;;;3.15;;
33844;SDS011;20145;43.118;25.694;2024-01-25T08:59:48;11.65;;;4.38;;
33844;SDS011;20145;43.118;25.694;2024-01-25T09:02:13;7.70;;;3.35;;
33844;SDS011;20145;43.118;25.694;2024-01-25T09:04:39;9.35;;;3.80;;
33844;SDS011;20145;43.118;25.694;2024-01-25T09:07:08;8.70;;;3.67;;
33844;SDS011;20145;43.118;25.694;2024-01-25T09:09:34;9.43;;;3.38;;
33844;SDS011;20145;43.118;25.694;2024-01-25T09:12:00;9.30;;;4.22;;
33844;SDS011;20145;43.118;25.694;2024-01-25T09:14:25;11.57;;;4.20;;
33844;SDS011;20145;43.118;25.694;2024-01-25T09:16:52;13.82;;;4.32;;
33844;SDS011;20145;43.118;25.694;2024-01-25T09:19:17;9.25;;;3.80;;
33844;SDS011;20145;43.118;25.694;2024-01-25T09:21:43;9.52;;;3.30;;
33844;SDS011;20145;43.118;25.694;2024-01-25T09:24:09;10.20;;;3.63;;
33844;SDS011;20145;43.118;25.694;2024-01-25T09:26:34;8.80;;;3.70;;
33844;SDS011;20145;43.118;25.694;2024-01-25T09:29:00;12.68;;;4.15;;
33844;SDS011;20145;43.118;25.694;2024-01-25T09:31:26;9.65;;;3.58;;
33844;SDS011;20145;43.118;25.694;2024-01-25T09:33:51;7.22;;;3.38;;
33844;SDS011;20145;43.118;25.694;2024-01-25T09:36:17;11.02;;;3.70;;
33844;SDS011;20145;43.118;25.694;2024-01-25T09:38:43;10.13;;;3.65;;
33844;SDS011;20145;43.118;25.694;2024-01-25T09:41:08;8.82;;;4.22;;
33844;SDS011;20145;43.118;25.694;2024-01-25T09:43:35;9.68;;;3.42;;
33844;SDS011;20145;43.118;25.694;2024-01-25T09:46:02;12.63;;;4.03;;
33844;SDS011;20145;43.118;25.694;2024-01-25T09:48:27;7.93;;;3.05;;
33844;SDS011;20145;43.118;25.694;2024-01-25T09:50:55;10.00;;;3.53;;
33844;SDS011;20145;43.118;25.694;2024-01-25T09:53:21;10.13;;;3.08;;
33844;SDS011;20145;43.118;25.694;2024-01-25T09:55:59;7.65;;;3.30;;
33844;SDS011;20145;43.118;25.694;2024-01-25T09:58:31;7.82;;;3.20;;
33844;SDS011;20145;43.118;25.694;2024-01-25T10:01:11;9.57;;;3.30;;
33844;SDS011;20145;43.118;25.694;2024-01-25T10:03:38;10.10;;;3.67;;
33844;SDS011;20145;43.118;25.694;2024-01-25T10:06:07;10.55;;;3.33;;
33844;SDS011;20145;43.118;25.694;2024-01-25T10:08:34;7.43;;;3.88;;
33844;SDS011;20145;43.118;25.694;2024-01-25T10:11:00;9.43;;;4.22;;
33844;SDS011;20145;43.118;25.694;2024-01-25T10:13:26;7.95;;;3.20;;
33844;SDS011;20145;43.118;25.694;2024-01-25T10:15:55;9.38;;;3.55;;
33844;SDS011;20145;43.118;25.694;2024-01-25T10:18:22;12.75;;;3.60;;
33844;SDS011;20145;43.118;25.694;2024-01-25T10:20:48;6.45;;;3.13;;
33844;SDS011;20145;43.118;25.694;2024-01-25T10:23:14;7.55;;;3.55;;
33844;SDS011;20145;43.118;25.694;2024-01-25T10:25:41;9.88;;;4.25;;
33844;SDS011;20145;43.118;25.694;2024-01-25T10:28:06;9.23;;;3.85;;
33844;SDS011;20145;43.118;25.694;2024-01-25T10:30:33;17.02;;;4.63;;
33844;SDS011;20145;43.118;25.694;2024-01-25T10:33:00;10.50;;;4.22;;
33844;SDS011;20145;43.118;25.694;2024-01-25T10:35:26;14.07;;;4.45;;
33844;SDS011;20145;43.118;25.694;2024-01-25T10:37:53;9.35;;;4.10;;
33844;SDS011;20145;43.118;25.694;2024-01-25T10:40:19;9.65;;;3.50;;
33844;SDS011;20145;43.118;25.694;2024-01-25T10:42:46;16.23;;;4.88;;
33844;SDS011;20145;43.118;25.694;2024-01-25T10:45:12;11.40;;;4.30;;
33844;SDS011;20145;43.118;25.694;2024-01-25T10:47:38;12.63;;;5.10;;
33844;SDS011;20145;43.118;25.694;2024-01-25T10:50:06;7.85;;;3.85;;
33844;SDS011;20145;43.118;25.694;2024-01-25T10:52:35;9.38;;;4.20;;
33844;SDS011;20145;43.118;25.694;2024-01-25T10:55:04;12.27;;;4.18;;
33844;SDS011;20145;43.118;25.694;2024-01-25T10:57:39;13.20;;;4.95;;
33844;SDS011;20145;43.118;25.694;2024-01-25T11:00:09;11.52;;;4.45;;
33844;SDS011;20145;43.118;25.694;2024-01-25T11:02:39;10.45;;;4.75;;
33844;SDS011;20145;43.118;25.694;2024-01-25T11:05:08;10.77;;;4.00;;
33844;SDS011;20145;43.118;25.694;2024-01-25T11:10:13;16.88;;;5.20;;
33844;SDS011;20145;43.118;25.694;2024-01-25T11:12:55;12.13;;;4.55;;
33844;SDS011;20145;43.118;25.694;2024-01-25T11:17:58;10.43;;;4.40;;
33844;SDS011;20145;43.118;25.694;2024-01-25T11:20:26;9.57;;;3.80;;
33844;SDS011;20145;43.118;25.694;2024-01-25T11:22:59;8.20;;;3.10;;
33844;SDS011;20145;43.118;25.694;2024-01-25T11:25:33;11.07;;;3.15;;
33844;SDS011;20145;43.118;25.694;2024-01-25T11:28:03;10.23;;;4.47;;
33844;SDS011;20145;43.118;25.694;2024-01-25T11:30:32;8.80;;;4.22;;
33844;SDS011;20145;43.118;25.694;2024-01-25T11:32:59;13.38;;;4.82;;
33844;SDS011;20145;43.118;25.694;2024-01-25T11:35:25;9.70;;;3.63;;
33844;SDS011;20145;43.118;25.694;2024-01-25T11:37:50;10.02;;;4.70;;
33844;SDS011;20145;43.118;25.694;2024-01-25T11:40:17;11.05;;;4.25;;
33844;SDS011;20145;43.118;25.694;2024-01-25T11:42:43;13.23;;;3.95;;
33844;SDS011;20145;43.118;25.694;2024-01-25T11:45:12;9.13;;;4.43;;
33844;SDS011;20145;43.118;25.694;2024-01-25T11:47:40;12.65;;;6.03;;
33844;SDS011;20145;43.118;25.694;2024-01-25T11:50:08;9.68;;;5.72;;
33844;SDS011;20145;43.118;25.694;2024-01-25T11:52:36;17.92;;;4.00;;
33844;SDS011;20145;43.118;25.694;2024-01-25T11:55:06;11.43;;;5.20;;
33844;SDS011;20145;43.118;25.694;2024-01-25T11:57:39;8.53;;;3.30;;
33844;SDS011;20145;43.118;25.694;2024-01-25T12:00:09;8.90;;;4.00;;
33844;SDS011;20145;43.118;25.694;2024-01-25T12:02:38;8.63;;;3.55;;
33844;SDS011;20145;43.118;25.694;2024-01-25T12:05:05;8.68;;;4.10;;
33844;SDS011;20145;43.118;25.694;2024-01-25T12:07:32;9.63;;;3.55;;
33844;SDS011;20145;43.118;25.694;2024-01-25T12:10:04;6.18;;;2.92;;
33844;SDS011;20145;43.118;25.694;2024-01-25T12:12:31;13.07;;;3.97;;
33844;SDS011;20145;43.118;25.694;2024-01-25T12:15:01;11.70;;;3.80;;
33844;SDS011;20145;43.118;25.694;2024-01-25T12:17:32;12.38;;;4.72;;
33844;SDS011;20145;43.118;25.694;2024-01-25T12:19:59;9.20;;;3.13;;
33844;SDS011;20145;43.118;25.694;2024-01-25T12:22:29;10.48;;;3.92;;
33844;SDS011;20145;43.118;25.694;2024-01-25T12:24:57;19.88;;;8.90;;
33844;SDS011;20145;43.118;25.694;2024-01-25T12:27:23;24.90;;;12.25;;
33844;SDS011;20145;43.118;25.694;2024-01-25T12:29:51;10.93;;;4.20;;
33844;SDS011;20145;43.118;25.694;2024-01-25T12:32:20;10.70;;;3.40;;
33844;SDS011;20145;43.118;25.694;2024-01-25T12:34:56;9.98;;;4.25;;
33844;SDS011;20145;43.118;25.694;2024-01-25T12:37:23;7.45;;;3.30;;
33844;SDS011;20145;43.118;25.694;2024-01-25T12:39:50;13.30;;;5.03;;
33844;SDS011;20145;43.118;25.694;2024-01-25T12:42:17;9.70;;;3.80;;
33844;SDS011;20145;43.118;25.694;2024-01-25T12:44:43;20.15;;;7.25;;
33844;SDS011;20145;43.118;25.694;2024-01-25T12:53:11;9.68;;;4.45;;
33844;SDS011;20145;43.118;25.694;2024-01-25T12:55:37;15.07;;;5.50;;
33844;SDS011;20145;43.118;25.694;2024-01-25T12:58:03;15.55;;;5.93;;
33844;SDS011;20145;43.118;25.694;2024-01-25T13:00:29;13.38;;;4.25;;
33844;SDS011;20145;43.118;25.694;2024-01-25T13:02:55;14.73;;;5.75;;
33844;SDS011;20145;43.118;25.694;2024-01-25T13:05:21;11.93;;;3.63;;
33844;SDS011;20145;43.118;25.694;2024-01-25T13:07:47;12.50;;;4.22;;
33844;SDS011;20145;43.118;25.694;2024-01-25T13:10:14;9.90;;;4.13;;
33844;SDS011;20145;43.118;25.694;2024-01-25T13:12:40;12.32;;;3.85;;
33844;SDS011;20145;43.118;25.694;2024-01-25T13:15:07;9.98;;;3.60;;
33844;SDS011;20145;43.118;25.694;2024-01-25T13:17:36;15.60;;;4.25;;
33844;SDS011;20145;43.118;25.694;2024-01-25T13:20:05;11.48;;;4.00;;
33844;SDS011;20145;43.118;25.694;2024-01-25T13:22:32;13.30;;;4.10;;
33844;SDS011;20145;43.118;25.694;2024-01-25T13:25:00;10.70;;;3.92;;
33844;SDS011;20145;43.118;25.694;2024-01-25T13:27:27;8.90;;;3.75;;
33844;SDS011;20145;43.118;25.694;2024-01-25T13:29:53;11.27;;;3.95;;
33844;SDS011;20145;43.118;25.694;2024-01-25T13:32:19;12.18;;;3.90;;
33844;SDS011;20145;43.118;25.694;2024-01-25T13:34:45;11.07;;;4.10;;
33844;SDS011;20145;43.118;25.694;2024-01-25T13:37:11;13.57;;;4.70;;
33844;SDS011;20145;43.118;25.694;2024-01-25T13:39:37;9.40;;;3.35;;
33844;SDS011;20145;43.118;25.694;2024-01-25T13:42:02;10.02;;;3.40;;
33844;SDS011;20145;43.118;25.694;2024-01-25T13:44:28;12.98;;;3.67;;
33844;SDS011;20145;43.118;25.694;2024-01-25T13:46:54;11.73;;;3.63;;
33844;SDS011;20145;43.118;25.694;2024-01-25T13:49:21;8.88;;;4.00;;
33844;SDS011;20145;43.118;25.694;2024-01-25T13:51:47;12.98;;;3.75;;
33844;SDS011;20145;43.118;25.694;2024-01-25T13:54:13;14.52;;;4.13;;
33844;SDS011;20145;43.118;25.694;2024-01-25T13:56:38;14.85;;;4.50;;
33844;SDS011;20145;43.118;25.694;2024-01-25T13:59:05;11.88;;;3.78;;
33844;SDS011;20145;43.118;25.694;2024-01-25T14:01:31;11.48;;;3.30;;
33844;SDS011;20145;43.118;25.694;2024-01-25T14:03:57;11.80;;;3.72;;
33844;SDS011;20145;43.118;25.694;2024-01-25T14:06:23;10.98;;;3.38;;
33844;SDS011;20145;43.118;25.694;2024-01-25T14:08:48;13.82;;;4.43;;
33844;SDS011;20145;43.118;25.694;2024-01-25T14:11:15;77.25;;;21.33;;
33844;SDS011;20145;43.118;25.694;2024-01-25T14:13:40;10.40;;;3.47;;
33844;SDS011;20145;43.118;25.694;2024-01-25T14:16:07;11.43;;;3.78;;
33844;SDS011;20145;43.118;25.694;2024-01-25T14:18:39;10.25;;;3.22;;
33844;SDS011;20145;43.118;25.694;2024-01-25T14:21:05;10.40;;;3.83;;
33844;SDS011;20145;43.118;25.694;2024-01-25T14:23:31;11.73;;;4.05;;
33844;SDS011;20145;43.118;25.694;2024-01-25T14:25:57;10.95;;;3.40;;
33844;SDS011;20145;43.118;25.694;2024-01-25T14:28:23;9.07;;;3.90;;
33844;SDS011;20145;43.118;25.694;2024-01-25T14:30:49;10.27;;;3.47;;
33844;SDS011;20145;43.118;25.694;2024-01-25T14:33:14;11.85;;;2.80;;
33844;SDS011;20145;43.118;25.694;2024-01-25T14:35:40;12.18;;;3.90;;
33844;SDS011;20145;43.118;25.694;2024-01-25T14:38:06;17.95;;;4.85;;